Terminal Aerodrome Forecast
Issued by NWS

Home | Current Version | Previous Version | Text Only | Print | Product List | Glossary On
Versions: 1 2 3 4 5 6 7 8 9 10 11 12 13 14
610
FTUS42 KTAE 282323
TAFABY
TAF
KABY 282323Z 2900/2924 23008KT P6SM SCT250
     FM290900 24006KT P6SM BKN008
     FM291400 25007KT P6SM BKN015
     FM291600 25009KT P6SM BKN035
     FM292000 26010KT 5SM -TSRA BKN030CB=

USA.gov is the U.S. government's official web portal to all federal, state and local government web resources and services.